Time;durP1;ratioP1;P1;durP2;ratioP2;P2;SDS_P1;SDS_P2;PMS_P1;PMS_P2;Temp;Humidity;BMP_temperature;BMP_pressure;BME280_temperature;BME280_humidity;BME280_pressure;Samples;Min_cycle;Max_cycle;Signal;HPM_P1;HPM_P2
2023/09/09 00:04:40;;;;;;;16.92;11.18;;;12.40;99.90;;;;;;21057611;28;20476;-60
2023/09/09 00:14:42;;;;;;;15.65;11.02;;;12.40;99.90;;;;;;21056495;28;20036;-61
2023/09/09 00:24:44;;;;;;;13.13;11.40;;;12.30;99.90;;;;;;21055659;28;20093;-60
2023/09/09 00:34:46;;;;;;;15.55;9.70;;;12.40;99.90;;;;;;21055492;28;20040;-61
2023/09/09 00:44:47;;;;;;;11.70;8.65;;;12.70;99.90;;;;;;21054556;28;20477;-60
2023/09/09 00:54:49;;;;;;;15.27;11.25;;;12.50;99.90;;;;;;21055239;28;20028;-61
2023/09/09 01:04:52;;;;;;;14.50;11.70;;;12.30;99.90;;;;;;21056775;28;20522;-62
2023/09/09 01:14:53;;;;;;;15.43;12.10;;;12.30;99.90;;;;;;21059092;28;20044;-62
2023/09/09 01:24:56;;;;;;;17.73;12.20;;;12.20;99.90;;;;;;21051246;28;20095;-60
2023/09/09 01:34:57;;;;;;;16.15;10.55;;;12.40;99.90;;;;;;21051281;28;20023;-61
2023/09/09 01:44:59;;;;;;;12.05;10.10;;;12.70;99.90;;;;;;21067885;28;20028;-61
2023/09/09 01:55:01;;;;;;;13.55;11.18;;;12.50;99.90;;;;;;21067379;28;20032;-61
2023/09/09 02:05:03;;;;;;;18.67;13.82;;;12.40;99.90;;;;;;21049831;28;20051;-61
2023/09/09 02:15:05;;;;;;;14.10;11.27;;;12.20;99.90;;;;;;21066057;28;20039;-61
2023/09/09 02:25:08;;;;;;;19.05;11.90;;;12.10;99.90;;;;;;21065364;28;20036;-61
2023/09/09 02:35:10;;;;;;;20.00;13.85;;;12.00;99.90;;;;;;21047406;28;20028;-61
2023/09/09 02:45:12;;;;;;;14.98;11.68;;;11.90;99.90;;;;;;21006111;28;20033;-61
2023/09/09 02:55:14;;;;;;;17.42;11.93;;;12.00;99.90;;;;;;21021473;28;20495;-60
2023/09/09 03:05:16;;;;;;;17.40;12.27;;;11.90;99.90;;;;;;21043627;28;20040;-60
2023/09/09 03:15:18;;;;;;;16.90;12.40;;;12.00;99.90;;;;;;20976148;28;20045;-62
2023/09/09 03:25:20;;;;;;;19.30;13.80;;;11.90;99.90;;;;;;20969857;28;20036;-61
2023/09/09 03:35:22;;;;;;;21.15;13.98;;;11.60;99.90;;;;;;20934223;28;20067;-62
2023/09/09 03:45:24;;;;;;;19.17;13.95;;;11.70;99.90;;;;;;20930736;28;20033;-60
2023/09/09 03:55:28;;;;;;;17.95;14.95;;;11.90;99.90;;;;;;20942991;28;20028;-61
2023/09/09 04:05:30;;;;;;;18.65;13.15;;;11.80;99.90;;;;;;20933982;28;20097;-61
2023/09/09 04:15:32;;;;;;;19.77;15.27;;;11.80;99.90;;;;;;21015499;28;20090;-61
2023/09/09 04:25:34;;;;;;;21.08;15.70;;;11.80;99.90;;;;;;20996268;28;20033;-61
2023/09/09 04:35:36;;;;;;;22.83;15.55;;;11.90;99.90;;;;;;21005750;28;20032;-62
2023/09/09 04:45:38;;;;;;;20.38;15.23;;;11.80;99.90;;;;;;21010088;28;20032;-62
2023/09/09 04:55:40;;;;;;;16.98;12.98;;;11.80;99.90;;;;;;20992526;28;20028;-61
2023/09/09 05:05:42;;;;;;;18.50;14.00;;;11.80;99.90;;;;;;20974762;28;1435345;-61
2023/09/09 05:15:44;;;;;;;17.55;12.73;;;11.80;99.90;;;;;;20988976;28;20036;-61
2023/09/09 05:25:48;;;;;;;15.02;10.32;;;12.00;99.90;;;;;;20997757;28;20040;-62
2023/09/09 05:35:50;;;;;;;14.50;11.90;;;12.10;99.90;;;;;;20995237;28;20032;-50
2023/09/09 05:45:56;;;;;;;14.10;10.75;;;12.20;99.90;;;;;;21005558;28;20039;-62
2023/09/09 05:55:58;;;;;;;14.05;10.45;;;12.50;99.90;;;;;;21002075;28;20447;-62
2023/09/09 06:06:00;;;;;;;14.50;11.23;;;12.60;99.90;;;;;;21018903;28;20078;-62
2023/09/09 06:16:02;;;;;;;18.52;13.30;;;12.60;99.90;;;;;;21019596;28;20085;-63
2023/09/09 06:26:04;;;;;;;16.42;12.10;;;12.80;99.90;;;;;;21024711;28;20040;-62
2023/09/09 06:36:08;;;;;;;13.25;11.02;;;13.00;99.90;;;;;;20999150;28;20044;-62
2023/09/09 06:46:11;;;;;;;14.35;10.23;;;13.50;99.90;;;;;;21001998;28;20267;-62
2023/09/09 06:56:13;;;;;;;16.70;10.55;;;14.60;99.90;;;;;;21028037;28;20037;-60
2023/09/09 07:06:18;;;;;;;12.70;9.93;;;15.60;99.90;;;;;;21020848;28;20040;-61
2023/09/09 07:16:22;;;;;;;10.57;8.68;;;16.50;99.90;;;;;;21009730;28;20032;-61
2023/09/09 07:26:25;;;;;;;9.80;8.52;;;17.70;99.90;;;;;;21022979;28;20043;-57
2023/09/09 07:36:27;;;;;;;9.90;8.90;;;19.00;99.90;;;;;;21013917;28;20511;-60
2023/09/09 07:46:30;;;;;;;9.68;8.15;;;20.10;99.90;;;;;;21020157;28;20478;-61
2023/09/09 07:56:33;;;;;;;9.30;7.47;;;20.80;99.90;;;;;;21015107;28;20035;-61
2023/09/09 08:06:35;;;;;;;7.95;6.68;;;21.50;99.90;;;;;;21032761;28;20561;-56
2023/09/09 08:16:38;;;;;;;8.75;6.30;;;22.20;99.90;;;;;;21007665;28;20028;-58
2023/09/09 08:26:41;;;;;;;7.97;7.13;;;22.60;99.90;;;;;;21003202;28;20530;-60
2023/09/09 08:36:44;;;;;;;10.70;7.50;;;22.80;99.90;;;;;;20998643;28;20028;-60
2023/09/09 08:46:49;;;;;;;8.18;6.90;;;22.80;99.90;;;;;;21023810;28;20032;-60
2023/09/09 08:56:53;;;;;;;7.78;6.97;;;22.90;99.90;;;;;;21021469;28;20032;-60
2023/09/09 09:06:57;;;;;;;9.52;7.20;;;23.40;99.90;;;;;;21004986;28;20070;-60
2023/09/09 09:17:03;;;;;;;8.57;7.10;;;23.80;99.90;;;;;;21019021;28;20043;-60
2023/09/09 09:27:10;;;;;;;9.63;7.15;;;24.00;99.90;;;;;;20986683;28;20478;-60
2023/09/09 09:37:18;;;;;;;6.88;6.18;;;24.20;99.90;;;;;;21006618;28;20028;-60
2023/09/09 09:47:21;;;;;;;7.78;6.63;;;24.40;99.90;;;;;;21020772;28;20028;-58
2023/09/09 09:57:27;;;;;;;12.20;7.78;;;24.40;99.80;;;;;;21004497;28;20032;-59
2023/09/09 10:07:35;;;;;;;11.02;6.88;;;24.70;99.90;;;;;;21013614;28;20032;-59
2023/09/09 10:17:42;;;;;;;8.30;6.97;;;24.60;99.90;;;;;;21015375;28;20404;-53
2023/09/09 10:27:47;;;;;;;7.50;6.30;;;25.10;99.90;;;;;;21026615;28;20538;-59
2023/09/09 10:37:51;;;;;;;10.55;7.80;;;25.40;99.90;;;;;;21023503;28;20154;-59
2023/09/09 10:48:07;;;;;;;9.10;7.07;;;25.40;98.60;;;;;;20980226;28;20477;-55
2023/09/09 10:58:17;;;;;;;9.13;6.30;;;25.40;99.40;;;;;;21027392;28;20443;-58
2023/09/09 11:08:43;;;;;;;8.35;6.82;;;25.40;99.90;;;;;;20993260;28;20056;-58
2023/09/09 11:18:49;;;;;;;7.80;6.70;;;25.50;99.90;;;;;;21001263;28;20043;-58
2023/09/09 11:28:53;;;;;;;8.35;6.78;;;25.70;98.10;;;;;;21015660;28;20032;-59
2023/09/09 11:39:00;;;;;;;6.82;5.60;;;25.70;99.90;;;;;;21021464;28;20405;-59
2023/09/09 11:49:06;;;;;;;8.63;6.35;;;26.00;99.80;;;;;;21008220;28;20028;-59
2023/09/09 11:59:15;;;;;;;7.95;7.07;;;25.50;99.90;;;;;;20991447;28;20192;-59
2023/09/09 12:09:18;;;;;;;10.15;7.60;;;25.20;99.90;;;;;;20995294;28;20443;-59
2023/09/09 12:19:21;;;;;;;8.05;6.90;;;25.20;99.80;;;;;;21021770;28;20032;-59
2023/09/09 12:29:24;;;;;;;9.20;7.35;;;25.30;99.60;;;;;;21040969;28;20435;-59
2023/09/09 12:39:31;;;;;;;11.38;7.20;;;25.60;99.20;;;;;;21011059;28;20086;-60
2023/09/09 12:49:48;;;;;;;7.22;6.40;;;25.50;99.90;;;;;;21004385;28;20570;-60
2023/09/09 12:59:57;;;;;;;7.82;6.88;;;25.90;99.80;;;;;;21007751;28;20036;-59
2023/09/09 13:10:05;;;;;;;10.75;7.57;;;25.90;99.90;;;;;;21019462;28;20090;-59
2023/09/09 13:20:12;;;;;;;;;;;25.70;98.50;;;;;;21022185;28;20358;-59
2023/09/09 13:30:18;;;;;;;8.43;7.63;;;25.40;99.80;;;;;;21032255;28;19912;-60
2023/09/09 13:40:22;;;;;;;9.10;7.20;;;24.80;99.90;;;;;;21009093;28;20028;-59
2023/09/09 13:50:26;;;;;;;8.30;7.50;;;25.20;99.90;;;;;;21023832;28;20037;-59
2023/09/09 14:00:32;;;;;;;9.05;8.13;;;25.30;99.40;;;;;;20987879;28;20051;-60
2023/09/09 14:10:38;;;;;;;12.07;8.13;;;25.30;98.90;;;;;;21040728;28;20471;-61
2023/09/09 14:20:47;;;;;;;10.05;7.45;;;25.10;98.60;;;;;;21017516;28;20040;-61
2023/09/09 14:30:54;;;;;;;9.07;8.18;;;24.80;99.50;;;;;;20997915;28;20381;-61
2023/09/09 14:41:00;;;;;;;9.20;7.80;;;24.30;98.00;;;;;;21030288;28;20054;-61
2023/09/09 14:51:03;;;;;;;12.80;8.23;;;24.00;99.40;;;;;;20998529;28;20467;-59
2023/09/09 15:01:09;;;;;;;9.98;7.57;;;23.70;99.70;;;;;;21018516;28;20047;-63
2023/09/09 15:11:11;;;;;;;9.80;7.50;;;23.10;99.90;;;;;;21003814;28;20455;-63
2023/09/09 15:21:16;;;;;;;9.68;8.45;;;22.40;99.90;;;;;;21002823;28;20040;-63
2023/09/09 15:31:19;;;;;;;11.75;9.02;;;21.60;99.90;;;;;;21004669;28;20086;-62
2023/09/09 15:41:27;;;;;;;15.93;8.05;;;21.00;99.90;;;;;;21021259;28;20468;-54
2023/09/09 15:51:31;;;;;;;10.68;8.10;;;20.50;99.90;;;;;;21002509;28;20048;-59
2023/09/09 16:01:35;;;;;;;22.70;10.65;;;20.10;99.90;;;;;;21020621;28;20373;-61
2023/09/09 16:11:37;;;;;;;12.07;9.30;;;19.30;99.90;;;;;;21019380;28;20056;-54
2023/09/09 16:21:41;;;;;;;14.98;9.32;;;18.40;99.90;;;;;;21022023;28;20546;-60
2023/09/09 16:31:45;;;;;;;15.35;12.18;;;17.70;99.90;;;;;;21028768;28;20081;-61
2023/09/09 16:41:49;;;;;;;13.77;12.32;;;17.20;99.90;;;;;;21045966;28;20036;-60
2023/09/09 16:51:55;;;;;;;15.32;11.45;;;16.70;99.90;;;;;;21052465;28;20080;-60
2023/09/09 17:01:58;;;;;;;12.52;11.05;;;16.40;99.90;;;;;;21053463;28;20027;-62
2023/09/09 17:12:02;;;;;;;14.10;11.43;;;16.20;99.90;;;;;;21050888;28;20056;-55
2023/09/09 17:22:05;;;;;;;16.90;13.38;;;15.90;99.90;;;;;;21032451;28;20115;-60
2023/09/09 17:32:10;;;;;;;13.10;10.80;;;15.60;99.90;;;;;;21050886;28;20040;-60
2023/09/09 17:42:14;;;;;;;14.13;11.20;;;15.30;99.90;;;;;;21050822;28;20446;-60
2023/09/09 17:52:18;;;;;;;15.00;12.93;;;15.30;99.90;;;;;;21050633;28;20385;-60
2023/09/09 18:02:21;;;;;;;14.70;12.20;;;15.30;99.90;;;;;;21063917;28;20040;-60
2023/09/09 18:12:24;;;;;;;15.23;13.63;;;15.00;99.90;;;;;;21064383;28;20093;-60
2023/09/09 18:22:29;;;;;;;20.63;16.38;;;14.70;99.90;;;;;;21061832;28;20032;-60
2023/09/09 18:32:33;;;;;;;24.30;18.52;;;14.60;99.90;;;;;;21061624;28;20378;-61
2023/09/09 18:42:37;;;;;;;42.00;31.65;;;14.50;99.90;;;;;;21024452;28;20040;-61
2023/09/09 18:52:39;;;;;;;14.50;11.82;;;14.40;99.90;;;;;;20996277;28;20236;-61
2023/09/09 19:02:49;;;;;;;16.15;12.27;;;14.30;99.90;;;;;;21054522;28;20044;-60
2023/09/09 19:13:03;;;;;;;13.63;11.18;;;14.30;99.90;;;;;;21038809;28;20060;-61
2023/09/09 19:23:08;;;;;;;16.02;12.60;;;14.20;99.90;;;;;;21058208;28;20104;-60
2023/09/09 19:33:18;;;;;;;15.85;11.57;;;14.00;99.90;;;;;;21022909;28;20059;-61
2023/09/09 19:43:23;;;;;;;14.98;12.25;;;14.20;99.90;;;;;;21058040;28;20054;-60
2023/09/09 19:53:27;;;;;;;17.13;10.85;;;13.90;99.90;;;;;;21012887;28;20044;-55
2023/09/09 20:03:35;;;;;;;11.68;10.00;;;13.90;99.90;;;;;;21003909;28;20047;-60
2023/09/09 20:13:37;;;;;;;11.13;8.05;;;13.80;99.90;;;;;;21045230;28;20106;-60
2023/09/09 20:23:43;;;;;;;11.20;9.38;;;13.90;99.90;;;;;;21007809;28;20028;-62
2023/09/09 20:33:50;;;;;;;11.75;7.50;;;13.70;99.90;;;;;;21036230;28;20036;-61
2023/09/09 20:43:57;;;;;;;9.05;7.53;;;13.60;99.90;;;;;;21030496;28;20156;-67
2023/09/09 20:54:01;;;;;;;10.35;7.45;;;13.50;99.90;;;;;;20992668;28;20043;-63
2023/09/09 21:04:06;;;;;;;9.15;6.88;;;13.50;99.90;;;;;;21053651;28;20036;-63
2023/09/09 21:14:13;;;;;;;8.52;6.43;;;13.30;99.90;;;;;;21049695;28;20424;-68
2023/09/09 21:24:20;;;;;;;10.68;7.85;;;13.30;99.90;;;;;;21004562;28;20066;-64
2023/09/09 21:34:25;;;;;;;8.37;7.43;;;13.10;99.90;;;;;;20978659;28;20029;-63
2023/09/09 21:44:29;;;;;;;10.40;6.45;;;12.90;99.90;;;;;;21013076;28;20048;-60
2023/09/09 21:54:30;;;;;;;7.53;5.97;;;12.90;99.90;;;;;;21020076;28;20476;-59
2023/09/09 22:04:32;;;;;;;9.23;7.30;;;12.90;99.90;;;;;;21048556;28;20054;-63
2023/09/09 22:14:34;;;;;;;9.93;8.02;;;12.80;99.90;;;;;;21008606;28;20370;-65
2023/09/09 22:24:36;;;;;;;6.78;5.80;;;12.70;99.90;;;;;;21009599;28;20033;-60
2023/09/09 22:34:41;;;;;;;5.53;4.40;;;12.60;99.90;;;;;;20990193;28;20422;-60
2023/09/09 22:44:43;;;;;;;6.32;5.22;;;13.10;99.90;;;;;;20997100;28;20461;-62
2023/09/09 22:54:45;;;;;;;5.30;4.30;;;13.00;99.90;;;;;;21006909;28;20033;-62
2023/09/09 23:04:52;;;;;;;6.43;5.10;;;13.00;99.90;;;;;;21022052;28;20032;-62
2023/09/09 23:14:53;;;;;;;5.25;4.60;;;13.10;99.90;;;;;;21056766;28;20056;-61
2023/09/09 23:24:55;;;;;;;5.97;4.85;;;12.80;99.90;;;;;;21058164;28;20392;-66
2023/09/09 23:34:57;;;;;;;6.10;4.60;;;12.70;99.90;;;;;;21056876;28;20638;-63
2023/09/09 23:44:59;;;;;;;6.55;5.32;;;12.80;99.90;;;;;;21056501;28;20427;-61
2023/09/09 23:55:00;;;;;;;7.30;5.25;;;13.20;99.90;;;;;;21055124;28;20539;-60
